sensor_id;sensor_type;location;lat;lon;timestamp;P1;durP1;ratioP1;P2;durP2;ratioP2
72205;SDS011;60111;48.286;7.812;2022-12-18T00:02:16;61.95;;;24.35;;
72205;SDS011;60111;48.286;7.812;2022-12-18T00:04:48;59.50;;;23.12;;
72205;SDS011;60111;48.286;7.812;2022-12-18T00:07:21;52.90;;;21.80;;
72205;SDS011;60111;48.286;7.812;2022-12-18T00:09:54;55.48;;;23.15;;
72205;SDS011;60111;48.286;7.812;2022-12-18T00:12:26;67.60;;;24.95;;
72205;SDS011;60111;48.286;7.812;2022-12-18T00:14:59;47.80;;;21.23;;
72205;SDS011;60111;48.286;7.812;2022-12-18T00:17:31;62.58;;;23.75;;
72205;SDS011;60111;48.286;7.812;2022-12-18T00:20:04;52.43;;;22.07;;
72205;SDS011;60111;48.286;7.812;2022-12-18T00:22:38;52.97;;;22.70;;
72205;SDS011;60111;48.286;7.812;2022-12-18T00:25:10;58.43;;;23.20;;
72205;SDS011;60111;48.286;7.812;2022-12-18T00:27:43;50.40;;;21.00;;
72205;SDS011;60111;48.286;7.812;2022-12-18T00:30:16;58.02;;;23.32;;
72205;SDS011;60111;48.286;7.812;2022-12-18T00:32:48;53.70;;;21.95;;
72205;SDS011;60111;48.286;7.812;2022-12-18T00:35:21;52.50;;;21.62;;
72205;SDS011;60111;48.286;7.812;2022-12-18T00:37:53;67.70;;;35.15;;
72205;SDS011;60111;48.286;7.812;2022-12-18T00:40:26;49.50;;;23.12;;
72205;SDS011;60111;48.286;7.812;2022-12-18T00:42:59;49.90;;;21.27;;
72205;SDS011;60111;48.286;7.812;2022-12-18T00:45:31;50.55;;;21.35;;
72205;SDS011;60111;48.286;7.812;2022-12-18T00:48:04;47.98;;;22.02;;
72205;SDS011;60111;48.286;7.812;2022-12-18T00:50:37;58.30;;;23.98;;
72205;SDS011;60111;48.286;7.812;2022-12-18T00:53:09;55.52;;;23.10;;
72205;SDS011;60111;48.286;7.812;2022-12-18T00:55:43;55.77;;;22.60;;
72205;SDS011;60111;48.286;7.812;2022-12-18T00:58:16;57.70;;;24.00;;
72205;SDS011;60111;48.286;7.812;2022-12-18T01:00:49;63.73;;;23.52;;
72205;SDS011;60111;48.286;7.812;2022-12-18T01:03:21;58.13;;;23.67;;
72205;SDS011;60111;48.286;7.812;2022-12-18T01:05:54;59.48;;;24.85;;
72205;SDS011;60111;48.286;7.812;2022-12-18T01:08:26;61.30;;;24.02;;
72205;SDS011;60111;48.286;7.812;2022-12-18T01:10:59;61.20;;;22.93;;
72205;SDS011;60111;48.286;7.812;2022-12-18T01:13:32;57.35;;;24.20;;
72205;SDS011;60111;48.286;7.812;2022-12-18T01:16:05;61.45;;;24.25;;
72205;SDS011;60111;48.286;7.812;2022-12-18T01:18:38;61.37;;;22.85;;
72205;SDS011;60111;48.286;7.812;2022-12-18T01:21:12;57.38;;;23.62;;
72205;SDS011;60111;48.286;7.812;2022-12-18T01:23:50;64.22;;;24.98;;
72205;SDS011;60111;48.286;7.812;2022-12-18T01:26:25;60.48;;;23.67;;
72205;SDS011;60111;48.286;7.812;2022-12-18T01:29:00;53.30;;;20.90;;
72205;SDS011;60111;48.286;7.812;2022-12-18T01:31:33;54.10;;;22.70;;
72205;SDS011;60111;48.286;7.812;2022-12-18T01:34:06;58.80;;;22.77;;
72205;SDS011;60111;48.286;7.812;2022-12-18T01:36:38;55.88;;;22.25;;
72205;SDS011;60111;48.286;7.812;2022-12-18T01:39:12;67.23;;;25.50;;
72205;SDS011;60111;48.286;7.812;2022-12-18T01:44:50;61.23;;;23.65;;
72205;SDS011;60111;48.286;7.812;2022-12-18T01:47:41;57.27;;;22.70;;
72205;SDS011;60111;48.286;7.812;2022-12-18T01:50:17;57.07;;;22.30;;
72205;SDS011;60111;48.286;7.812;2022-12-18T01:52:54;57.85;;;23.35;;
72205;SDS011;60111;48.286;7.812;2022-12-18T01:55:37;47.38;;;19.48;;
72205;SDS011;60111;48.286;7.812;2022-12-18T01:58:10;48.23;;;19.48;;
72205;SDS011;60111;48.286;7.812;2022-12-18T02:00:43;54.73;;;21.70;;
72205;SDS011;60111;48.286;7.812;2022-12-18T02:03:17;64.13;;;22.93;;
72205;SDS011;60111;48.286;7.812;2022-12-18T02:05:56;58.87;;;22.32;;
72205;SDS011;60111;48.286;7.812;2022-12-18T02:08:56;58.85;;;22.77;;
72205;SDS011;60111;48.286;7.812;2022-12-18T02:14:35;59.90;;;23.15;;
72205;SDS011;60111;48.286;7.812;2022-12-18T02:19:53;55.12;;;20.68;;
72205;SDS011;60111;48.286;7.812;2022-12-18T02:28:31;59.33;;;24.52;;
72205;SDS011;60111;48.286;7.812;2022-12-18T02:31:10;55.55;;;21.37;;
72205;SDS011;60111;48.286;7.812;2022-12-18T02:33:44;53.35;;;21.10;;
72205;SDS011;60111;48.286;7.812;2022-12-18T02:38:52;61.40;;;23.38;;
72205;SDS011;60111;48.286;7.812;2022-12-18T02:41:26;63.28;;;22.05;;
72205;SDS011;60111;48.286;7.812;2022-12-18T02:44:01;58.98;;;22.32;;
72205;SDS011;60111;48.286;7.812;2022-12-18T02:46:41;47.67;;;19.67;;
72205;SDS011;60111;48.286;7.812;2022-12-18T02:52:12;67.47;;;24.90;;
72205;SDS011;60111;48.286;7.812;2022-12-18T02:54:57;62.10;;;23.90;;
72205;SDS011;60111;48.286;7.812;2022-12-18T03:00:20;72.65;;;25.02;;
72205;SDS011;60111;48.286;7.812;2022-12-18T03:03:09;65.55;;;25.05;;
72205;SDS011;60111;48.286;7.812;2022-12-18T03:05:46;64.58;;;24.50;;
72205;SDS011;60111;48.286;7.812;2022-12-18T03:08:29;61.50;;;23.50;;
72205;SDS011;60111;48.286;7.812;2022-12-18T03:11:00;67.37;;;26.40;;
72205;SDS011;60111;48.286;7.812;2022-12-18T03:13:36;63.60;;;24.07;;
72205;SDS011;60111;48.286;7.812;2022-12-18T03:16:18;64.58;;;22.35;;
72205;SDS011;60111;48.286;7.812;2022-12-18T03:18:52;58.15;;;21.30;;
72205;SDS011;60111;48.286;7.812;2022-12-18T03:21:51;64.30;;;22.62;;
72205;SDS011;60111;48.286;7.812;2022-12-18T03:24:20;63.40;;;24.07;;
72205;SDS011;60111;48.286;7.812;2022-12-18T03:26:58;58.33;;;22.40;;
72205;SDS011;60111;48.286;7.812;2022-12-18T03:29:33;65.90;;;24.67;;
72205;SDS011;60111;48.286;7.812;2022-12-18T03:32:10;68.37;;;23.77;;
72205;SDS011;60111;48.286;7.812;2022-12-18T03:34:45;60.12;;;22.27;;
72205;SDS011;60111;48.286;7.812;2022-12-18T03:37:20;68.72;;;25.40;;
72205;SDS011;60111;48.286;7.812;2022-12-18T03:39:53;64.87;;;25.23;;
72205;SDS011;60111;48.286;7.812;2022-12-18T03:42:28;65.15;;;26.37;;
72205;SDS011;60111;48.286;7.812;2022-12-18T03:45:07;67.00;;;27.67;;
72205;SDS011;60111;48.286;7.812;2022-12-18T03:53:32;70.20;;;24.30;;
72205;SDS011;60111;48.286;7.812;2022-12-18T03:56:24;66.65;;;25.23;;
72205;SDS011;60111;48.286;7.812;2022-12-18T03:58:59;64.82;;;22.25;;
72205;SDS011;60111;48.286;7.812;2022-12-18T04:01:35;67.97;;;24.45;;
72205;SDS011;60111;48.286;7.812;2022-12-18T04:04:15;67.17;;;24.97;;
72205;SDS011;60111;48.286;7.812;2022-12-18T04:06:50;65.95;;;22.85;;
72205;SDS011;60111;48.286;7.812;2022-12-18T04:09:24;70.83;;;24.57;;
72205;SDS011;60111;48.286;7.812;2022-12-18T04:11:57;71.43;;;25.30;;
72205;SDS011;60111;48.286;7.812;2022-12-18T04:14:30;67.08;;;23.12;;
72205;SDS011;60111;48.286;7.812;2022-12-18T04:17:04;64.62;;;23.90;;
72205;SDS011;60111;48.286;7.812;2022-12-18T04:19:37;64.67;;;23.50;;
72205;SDS011;60111;48.286;7.812;2022-12-18T04:22:10;62.80;;;23.85;;
72205;SDS011;60111;48.286;7.812;2022-12-18T04:24:43;59.53;;;23.50;;
72205;SDS011;60111;48.286;7.812;2022-12-18T04:27:15;56.28;;;21.55;;
72205;SDS011;60111;48.286;7.812;2022-12-18T04:29:48;58.08;;;19.85;;
72205;SDS011;60111;48.286;7.812;2022-12-18T04:32:21;63.00;;;23.57;;
72205;SDS011;60111;48.286;7.812;2022-12-18T04:34:53;69.82;;;25.72;;
72205;SDS011;60111;48.286;7.812;2022-12-18T04:37:26;61.85;;;23.52;;
72205;SDS011;60111;48.286;7.812;2022-12-18T04:39:58;64.55;;;22.62;;
72205;SDS011;60111;48.286;7.812;2022-12-18T04:42:31;62.45;;;22.17;;
72205;SDS011;60111;48.286;7.812;2022-12-18T04:45:04;58.98;;;22.82;;
72205;SDS011;60111;48.286;7.812;2022-12-18T04:47:37;51.50;;;16.13;;
72205;SDS011;60111;48.286;7.812;2022-12-18T04:50:09;58.35;;;21.68;;
72205;SDS011;60111;48.286;7.812;2022-12-18T04:52:42;54.83;;;20.88;;
72205;SDS011;60111;48.286;7.812;2022-12-18T04:55:15;59.45;;;22.40;;
72205;SDS011;60111;48.286;7.812;2022-12-18T04:57:47;56.85;;;21.75;;
72205;SDS011;60111;48.286;7.812;2022-12-18T05:00:20;63.50;;;22.42;;
72205;SDS011;60111;48.286;7.812;2022-12-18T05:02:53;60.33;;;22.70;;
72205;SDS011;60111;48.286;7.812;2022-12-18T05:05:25;58.28;;;21.20;;
72205;SDS011;60111;48.286;7.812;2022-12-18T05:10:57;54.63;;;20.55;;
72205;SDS011;60111;48.286;7.812;2022-12-18T05:13:31;49.93;;;17.70;;
72205;SDS011;60111;48.286;7.812;2022-12-18T05:16:05;56.40;;;21.47;;
72205;SDS011;60111;48.286;7.812;2022-12-18T05:18:39;55.03;;;20.90;;
72205;SDS011;60111;48.286;7.812;2022-12-18T05:21:11;52.63;;;19.73;;
72205;SDS011;60111;48.286;7.812;2022-12-18T05:23:44;52.15;;;18.92;;
72205;SDS011;60111;48.286;7.812;2022-12-18T05:26:17;47.17;;;18.48;;
72205;SDS011;60111;48.286;7.812;2022-12-18T05:28:50;48.20;;;20.67;;
72205;SDS011;60111;48.286;7.812;2022-12-18T05:31:22;50.85;;;19.12;;
72205;SDS011;60111;48.286;7.812;2022-12-18T05:33:55;52.75;;;19.10;;
72205;SDS011;60111;48.286;7.812;2022-12-18T05:36:27;55.80;;;19.98;;
72205;SDS011;60111;48.286;7.812;2022-12-18T05:39:00;47.67;;;18.60;;
72205;SDS011;60111;48.286;7.812;2022-12-18T05:41:33;39.37;;;15.13;;
72205;SDS011;60111;48.286;7.812;2022-12-18T05:44:05;55.50;;;19.82;;
72205;SDS011;60111;48.286;7.812;2022-12-18T05:46:39;48.75;;;19.32;;
72205;SDS011;60111;48.286;7.812;2022-12-18T05:49:11;61.00;;;20.52;;
72205;SDS011;60111;48.286;7.812;2022-12-18T05:51:44;49.70;;;18.65;;
72205;SDS011;60111;48.286;7.812;2022-12-18T05:54:16;42.80;;;18.10;;
72205;SDS011;60111;48.286;7.812;2022-12-18T05:56:49;46.33;;;18.02;;
72205;SDS011;60111;48.286;7.812;2022-12-18T05:59:22;47.95;;;18.62;;
72205;SDS011;60111;48.286;7.812;2022-12-18T06:01:54;44.88;;;17.60;;
72205;SDS011;60111;48.286;7.812;2022-12-18T06:04:27;57.43;;;19.17;;
72205;SDS011;60111;48.286;7.812;2022-12-18T06:07:00;44.00;;;17.07;;
72205;SDS011;60111;48.286;7.812;2022-12-18T06:09:33;50.83;;;19.40;;
72205;SDS011;60111;48.286;7.812;2022-12-18T06:12:05;48.35;;;17.85;;
72205;SDS011;60111;48.286;7.812;2022-12-18T06:14:39;52.65;;;19.55;;
72205;SDS011;60111;48.286;7.812;2022-12-18T06:17:11;49.13;;;18.07;;
72205;SDS011;60111;48.286;7.812;2022-12-18T06:19:44;49.85;;;19.45;;
72205;SDS011;60111;48.286;7.812;2022-12-18T06:22:16;53.52;;;18.60;;
72205;SDS011;60111;48.286;7.812;2022-12-18T06:24:49;57.65;;;20.00;;
72205;SDS011;60111;48.286;7.812;2022-12-18T06:27:22;47.60;;;18.80;;
72205;SDS011;60111;48.286;7.812;2022-12-18T06:29:55;52.60;;;20.27;;
72205;SDS011;60111;48.286;7.812;2022-12-18T06:32:27;48.08;;;19.87;;
72205;SDS011;60111;48.286;7.812;2022-12-18T06:35:00;54.25;;;19.90;;
72205;SDS011;60111;48.286;7.812;2022-12-18T06:37:33;52.58;;;19.70;;
72205;SDS011;60111;48.286;7.812;2022-12-18T06:40:05;53.50;;;20.05;;
72205;SDS011;60111;48.286;7.812;2022-12-18T06:42:39;54.44;;;20.34;;
72205;SDS011;60111;48.286;7.812;2022-12-18T06:45:12;52.78;;;20.48;;
72205;SDS011;60111;48.286;7.812;2022-12-18T06:47:44;52.65;;;20.15;;
72205;SDS011;60111;48.286;7.812;2022-12-18T06:50:17;53.42;;;19.62;;
72205;SDS011;60111;48.286;7.812;2022-12-18T06:52:49;55.03;;;20.75;;
72205;SDS011;60111;48.286;7.812;2022-12-18T06:55:22;61.85;;;22.95;;
72205;SDS011;60111;48.286;7.812;2022-12-18T06:57:54;54.70;;;20.40;;
72205;SDS011;60111;48.286;7.812;2022-12-18T07:00:28;53.33;;;20.40;;
72205;SDS011;60111;48.286;7.812;2022-12-18T07:03:00;58.92;;;21.10;;
72205;SDS011;60111;48.286;7.812;2022-12-18T07:05:33;49.80;;;19.73;;
72205;SDS011;60111;48.286;7.812;2022-12-18T07:08:05;48.48;;;19.17;;
72205;SDS011;60111;48.286;7.812;2022-12-18T07:10:42;58.50;;;22.93;;
72205;SDS011;60111;48.286;7.812;2022-12-18T07:13:15;64.97;;;23.15;;
72205;SDS011;60111;48.286;7.812;2022-12-18T07:15:48;48.33;;;19.10;;
72205;SDS011;60111;48.286;7.812;2022-12-18T07:18:21;56.85;;;23.25;;
72205;SDS011;60111;48.286;7.812;2022-12-18T07:20:53;64.87;;;23.67;;
72205;SDS011;60111;48.286;7.812;2022-12-18T07:23:26;52.88;;;20.48;;
72205;SDS011;60111;48.286;7.812;2022-12-18T07:26:10;55.83;;;20.80;;
72205;SDS011;60111;48.286;7.812;2022-12-18T07:28:40;55.08;;;20.77;;
72205;SDS011;60111;48.286;7.812;2022-12-18T07:31:17;47.87;;;18.43;;
72205;SDS011;60111;48.286;7.812;2022-12-18T07:33:51;40.25;;;17.65;;
72205;SDS011;60111;48.286;7.812;2022-12-18T07:36:24;34.00;;;15.33;;
72205;SDS011;60111;48.286;7.812;2022-12-18T07:38:57;40.00;;;15.18;;
72205;SDS011;60111;48.286;7.812;2022-12-18T07:41:30;41.37;;;17.42;;
72205;SDS011;60111;48.286;7.812;2022-12-18T07:44:02;47.67;;;19.05;;
72205;SDS011;60111;48.286;7.812;2022-12-18T07:46:35;41.35;;;16.62;;
72205;SDS011;60111;48.286;7.812;2022-12-18T07:49:08;40.75;;;16.85;;
72205;SDS011;60111;48.286;7.812;2022-12-18T07:51:40;34.50;;;14.53;;
72205;SDS011;60111;48.286;7.812;2022-12-18T07:54:13;49.98;;;18.05;;
72205;SDS011;60111;48.286;7.812;2022-12-18T07:56:46;40.03;;;16.77;;
72205;SDS011;60111;48.286;7.812;2022-12-18T07:59:18;36.15;;;15.45;;
72205;SDS011;60111;48.286;7.812;2022-12-18T08:01:51;34.20;;;15.20;;
72205;SDS011;60111;48.286;7.812;2022-12-18T08:04:24;40.60;;;16.48;;
72205;SDS011;60111;48.286;7.812;2022-12-18T08:06:57;40.40;;;15.58;;
72205;SDS011;60111;48.286;7.812;2022-12-18T08:09:29;44.67;;;18.45;;
72205;SDS011;60111;48.286;7.812;2022-12-18T08:12:02;40.15;;;16.95;;
72205;SDS011;60111;48.286;7.812;2022-12-18T08:14:35;60.10;;;17.75;;
72205;SDS011;60111;48.286;7.812;2022-12-18T08:17:07;56.35;;;18.20;;
72205;SDS011;60111;48.286;7.812;2022-12-18T08:19:40;38.60;;;16.77;;
72205;SDS011;60111;48.286;7.812;2022-12-18T08:22:13;38.08;;;16.02;;
72205;SDS011;60111;48.286;7.812;2022-12-18T08:24:45;43.78;;;17.92;;
72205;SDS011;60111;48.286;7.812;2022-12-18T08:27:18;39.38;;;16.25;;
72205;SDS011;60111;48.286;7.812;2022-12-18T08:29:50;39.05;;;15.88;;
72205;SDS011;60111;48.286;7.812;2022-12-18T08:32:23;40.10;;;17.30;;
72205;SDS011;60111;48.286;7.812;2022-12-18T08:34:57;49.88;;;18.95;;
72205;SDS011;60111;48.286;7.812;2022-12-18T08:37:30;53.65;;;19.00;;
72205;SDS011;60111;48.286;7.812;2022-12-18T08:40:03;44.50;;;16.65;;
72205;SDS011;60111;48.286;7.812;2022-12-18T08:42:36;60.20;;;17.00;;
72205;SDS011;60111;48.286;7.812;2022-12-18T08:45:27;50.23;;;23.97;;
72205;SDS011;60111;48.286;7.812;2022-12-18T08:48:00;56.77;;;18.45;;
72205;SDS011;60111;48.286;7.812;2022-12-18T08:50:32;36.75;;;16.50;;
72205;SDS011;60111;48.286;7.812;2022-12-18T08:53:05;44.42;;;17.27;;
72205;SDS011;60111;48.286;7.812;2022-12-18T08:55:37;42.75;;;15.95;;
72205;SDS011;60111;48.286;7.812;2022-12-18T08:58:10;41.45;;;16.70;;
72205;SDS011;60111;48.286;7.812;2022-12-18T09:00:43;40.85;;;16.15;;
72205;SDS011;60111;48.286;7.812;2022-12-18T09:03:16;45.35;;;16.85;;
72205;SDS011;60111;48.286;7.812;2022-12-18T09:05:52;44.87;;;17.83;;
72205;SDS011;60111;48.286;7.812;2022-12-18T09:08:25;39.13;;;16.00;;
72205;SDS011;60111;48.286;7.812;2022-12-18T09:10:58;44.90;;;19.67;;
72205;SDS011;60111;48.286;7.812;2022-12-18T09:13:31;37.30;;;16.50;;
72205;SDS011;60111;48.286;7.812;2022-12-18T09:16:04;37.63;;;17.23;;
72205;SDS011;60111;48.286;7.812;2022-12-18T09:18:36;39.33;;;18.15;;
72205;SDS011;60111;48.286;7.812;2022-12-18T09:21:10;38.58;;;17.98;;
72205;SDS011;60111;48.286;7.812;2022-12-18T09:23:54;41.05;;;17.05;;
72205;SDS011;60111;48.286;7.812;2022-12-18T09:26:23;42.15;;;18.07;;
72205;SDS011;60111;48.286;7.812;2022-12-18T09:28:56;41.90;;;18.92;;
72205;SDS011;60111;48.286;7.812;2022-12-18T09:31:28;42.13;;;19.48;;
72205;SDS011;60111;48.286;7.812;2022-12-18T09:34:01;42.27;;;18.48;;
72205;SDS011;60111;48.286;7.812;2022-12-18T09:36:38;40.17;;;17.65;;
72205;SDS011;60111;48.286;7.812;2022-12-18T09:39:11;35.38;;;15.40;;
72205;SDS011;60111;48.286;7.812;2022-12-18T09:41:47;49.00;;;19.50;;
72205;SDS011;60111;48.286;7.812;2022-12-18T09:44:29;37.53;;;17.27;;
72205;SDS011;60111;48.286;7.812;2022-12-18T09:47:08;41.48;;;18.17;;
72205;SDS011;60111;48.286;7.812;2022-12-18T09:49:52;40.28;;;18.15;;
72205;SDS011;60111;48.286;7.812;2022-12-18T09:52:30;50.90;;;18.85;;
72205;SDS011;60111;48.286;7.812;2022-12-18T09:57:49;52.78;;;20.75;;
72205;SDS011;60111;48.286;7.812;2022-12-18T10:00:23;58.38;;;21.68;;
72205;SDS011;60111;48.286;7.812;2022-12-18T10:03:01;50.33;;;19.60;;
72205;SDS011;60111;48.286;7.812;2022-12-18T10:05:53;53.25;;;21.45;;
72205;SDS011;60111;48.286;7.812;2022-12-18T10:08:54;54.63;;;20.23;;
72205;SDS011;60111;48.286;7.812;2022-12-18T10:14:19;44.95;;;18.57;;
72205;SDS011;60111;48.286;7.812;2022-12-18T10:17:03;46.98;;;19.40;;
72205;SDS011;60111;48.286;7.812;2022-12-18T10:22:48;57.83;;;26.35;;
72205;SDS011;60111;48.286;7.812;2022-12-18T10:28:37;37.67;;;17.45;;
72205;SDS011;60111;48.286;7.812;2022-12-18T10:31:18;32.83;;;15.13;;
72205;SDS011;60111;48.286;7.812;2022-12-18T10:33:53;37.00;;;16.82;;
72205;SDS011;60111;48.286;7.812;2022-12-18T10:36:26;34.80;;;15.95;;
72205;SDS011;60111;48.286;7.812;2022-12-18T10:39:22;45.03;;;20.05;;
72205;SDS011;60111;48.286;7.812;2022-12-18T10:41:46;41.23;;;19.53;;
72205;SDS011;60111;48.286;7.812;2022-12-18T10:44:23;44.20;;;20.50;;
72205;SDS011;60111;48.286;7.812;2022-12-18T10:47:02;47.27;;;21.17;;
72205;SDS011;60111;48.286;7.812;2022-12-18T10:49:47;42.40;;;20.55;;
72205;SDS011;60111;48.286;7.812;2022-12-18T10:52:20;49.73;;;23.35;;
72205;SDS011;60111;48.286;7.812;2022-12-18T10:54:51;49.75;;;22.82;;
72205;SDS011;60111;48.286;7.812;2022-12-18T10:57:33;42.73;;;20.43;;
72205;SDS011;60111;48.286;7.812;2022-12-18T11:00:21;44.75;;;21.00;;
72205;SDS011;60111;48.286;7.812;2022-12-18T11:02:55;44.60;;;21.55;;
72205;SDS011;60111;48.286;7.812;2022-12-18T11:05:32;45.03;;;21.75;;
72205;SDS011;60111;48.286;7.812;2022-12-18T11:08:11;48.95;;;22.60;;
72205;SDS011;60111;48.286;7.812;2022-12-18T11:10:44;45.03;;;21.85;;
72205;SDS011;60111;48.286;7.812;2022-12-18T11:13:19;43.00;;;21.02;;
72205;SDS011;60111;48.286;7.812;2022-12-18T11:15:53;44.93;;;20.88;;
72205;SDS011;60111;48.286;7.812;2022-12-18T11:18:30;44.60;;;21.73;;
72205;SDS011;60111;48.286;7.812;2022-12-18T11:21:06;48.95;;;23.12;;
72205;SDS011;60111;48.286;7.812;2022-12-18T11:23:50;40.02;;;19.14;;
72205;SDS011;60111;48.286;7.812;2022-12-18T11:26:33;48.50;;;23.07;;
72205;SDS011;60111;48.286;7.812;2022-12-18T11:29:09;40.45;;;19.60;;
72205;SDS011;60111;48.286;7.812;2022-12-18T11:31:43;47.95;;;23.12;;
72205;SDS011;60111;48.286;7.812;2022-12-18T11:34:24;43.58;;;21.95;;
72205;SDS011;60111;48.286;7.812;2022-12-18T11:36:58;41.63;;;21.40;;
72205;SDS011;60111;48.286;7.812;2022-12-18T11:39:36;33.98;;;17.57;;
72205;SDS011;60111;48.286;7.812;2022-12-18T11:42:14;45.60;;;21.52;;
72205;SDS011;60111;48.286;7.812;2022-12-18T11:44:48;35.80;;;19.20;;
72205;SDS011;60111;48.286;7.812;2022-12-18T11:47:33;48.20;;;22.10;;
72205;SDS011;60111;48.286;7.812;2022-12-18T11:50:12;48.50;;;23.22;;
72205;SDS011;60111;48.286;7.812;2022-12-18T11:52:46;37.10;;;19.40;;
72205;SDS011;60111;48.286;7.812;2022-12-18T12:04:12;39.50;;;20.57;;
72205;SDS011;60111;48.286;7.812;2022-12-18T12:06:38;38.98;;;20.45;;
72205;SDS011;60111;48.286;7.812;2022-12-18T12:17:42;35.35;;;19.90;;
72205;SDS011;60111;48.286;7.812;2022-12-18T12:26:30;42.95;;;22.73;;
72205;SDS011;60111;48.286;7.812;2022-12-18T12:34:33;42.58;;;22.48;;
72205;SDS011;60111;48.286;7.812;2022-12-18T12:40:10;41.18;;;22.82;;
72205;SDS011;60111;48.286;7.812;2022-12-18T12:46:06;46.33;;;23.77;;
72205;SDS011;60111;48.286;7.812;2022-12-18T12:48:50;43.38;;;22.80;;
72205;SDS011;60111;48.286;7.812;2022-12-18T12:51:32;42.00;;;22.50;;
72205;SDS011;60111;48.286;7.812;2022-12-18T12:54:02;42.90;;;22.80;;
72205;SDS011;60111;48.286;7.812;2022-12-18T12:56:39;47.08;;;25.75;;
72205;SDS011;60111;48.286;7.812;2022-12-18T13:02:28;46.25;;;24.25;;
72205;SDS011;60111;48.286;7.812;2022-12-18T13:05:16;46.45;;;24.70;;
72205;SDS011;60111;48.286;7.812;2022-12-18T13:07:50;55.78;;;28.85;;
72205;SDS011;60111;48.286;7.812;2022-12-18T13:13:06;43.85;;;24.45;;
72205;SDS011;60111;48.286;7.812;2022-12-18T13:15:47;42.13;;;22.45;;
72205;SDS011;60111;48.286;7.812;2022-12-18T13:18:37;46.60;;;24.10;;
72205;SDS011;60111;48.286;7.812;2022-12-18T13:21:17;50.23;;;25.12;;
72205;SDS011;60111;48.286;7.812;2022-12-18T13:23:51;52.05;;;27.05;;
72205;SDS011;60111;48.286;7.812;2022-12-18T13:29:01;60.48;;;29.67;;
72205;SDS011;60111;48.286;7.812;2022-12-18T13:34:21;53.73;;;24.70;;
72205;SDS011;60111;48.286;7.812;2022-12-18T13:36:57;56.53;;;25.35;;
72205;SDS011;60111;48.286;7.812;2022-12-18T13:39:48;53.02;;;25.82;;
72205;SDS011;60111;48.286;7.812;2022-12-18T13:42:31;52.13;;;25.40;;
72205;SDS011;60111;48.286;7.812;2022-12-18T13:48:19;55.83;;;27.60;;
72205;SDS011;60111;48.286;7.812;2022-12-18T13:50:49;55.78;;;27.37;;
72205;SDS011;60111;48.286;7.812;2022-12-18T13:56:16;53.52;;;27.35;;
72205;SDS011;60111;48.286;7.812;2022-12-18T14:01:59;59.85;;;28.47;;
72205;SDS011;60111;48.286;7.812;2022-12-18T14:04:34;66.62;;;32.45;;
72205;SDS011;60111;48.286;7.812;2022-12-18T14:07:10;62.80;;;30.82;;
72205;SDS011;60111;48.286;7.812;2022-12-18T14:09:47;64.12;;;31.93;;
72205;SDS011;60111;48.286;7.812;2022-12-18T14:12:24;57.33;;;28.42;;
72205;SDS011;60111;48.286;7.812;2022-12-18T14:15:21;54.75;;;26.85;;
72205;SDS011;60111;48.286;7.812;2022-12-18T14:18:23;62.03;;;30.52;;
72205;SDS011;60111;48.286;7.812;2022-12-18T14:23:26;61.58;;;28.90;;
72205;SDS011;60111;48.286;7.812;2022-12-18T14:26:24;74.22;;;32.83;;
72205;SDS011;60111;48.286;7.812;2022-12-18T14:28:58;70.37;;;33.02;;
72205;SDS011;60111;48.286;7.812;2022-12-18T14:31:32;62.65;;;30.05;;
72205;SDS011;60111;48.286;7.812;2022-12-18T14:34:04;70.53;;;34.03;;
72205;SDS011;60111;48.286;7.812;2022-12-18T14:39:13;68.78;;;30.70;;
72205;SDS011;60111;48.286;7.812;2022-12-18T14:41:48;85.07;;;36.53;;
72205;SDS011;60111;48.286;7.812;2022-12-18T14:44:20;89.83;;;38.42;;
72205;SDS011;60111;48.286;7.812;2022-12-18T14:46:53;266.95;;;74.50;;
72205;SDS011;60111;48.286;7.812;2022-12-18T14:49:32;262.90;;;78.02;;
72205;SDS011;60111;48.286;7.812;2022-12-18T14:52:29;102.22;;;41.50;;
72205;SDS011;60111;48.286;7.812;2022-12-18T14:54:49;76.00;;;34.48;;
72205;SDS011;60111;48.286;7.812;2022-12-18T14:57:25;77.35;;;36.20;;
72205;SDS011;60111;48.286;7.812;2022-12-18T15:00:06;80.47;;;35.25;;
72205;SDS011;60111;48.286;7.812;2022-12-18T15:02:41;78.37;;;35.58;;
72205;SDS011;60111;48.286;7.812;2022-12-18T15:05:30;67.83;;;31.57;;
72205;SDS011;60111;48.286;7.812;2022-12-18T15:08:24;80.15;;;35.73;;
72205;SDS011;60111;48.286;7.812;2022-12-18T15:10:45;75.32;;;34.05;;
72205;SDS011;60111;48.286;7.812;2022-12-18T15:13:22;74.72;;;33.35;;
72205;SDS011;60111;48.286;7.812;2022-12-18T15:15:57;77.05;;;33.42;;
72205;SDS011;60111;48.286;7.812;2022-12-18T15:18:34;73.12;;;33.88;;
72205;SDS011;60111;48.286;7.812;2022-12-18T15:21:10;71.35;;;31.77;;
72205;SDS011;60111;48.286;7.812;2022-12-18T15:23:47;80.10;;;34.65;;
72205;SDS011;60111;48.286;7.812;2022-12-18T15:26:21;73.37;;;32.58;;
72205;SDS011;60111;48.286;7.812;2022-12-18T15:28:54;71.27;;;30.47;;
72205;SDS011;60111;48.286;7.812;2022-12-18T15:31:31;71.65;;;30.35;;
72205;SDS011;60111;48.286;7.812;2022-12-18T15:36:47;77.55;;;31.82;;
72205;SDS011;60111;48.286;7.812;2022-12-18T15:39:19;68.45;;;32.25;;
72205;SDS011;60111;48.286;7.812;2022-12-18T15:41:52;69.37;;;31.33;;
72205;SDS011;60111;48.286;7.812;2022-12-18T15:44:43;64.03;;;30.15;;
72205;SDS011;60111;48.286;7.812;2022-12-18T15:47:16;74.07;;;35.35;;
72205;SDS011;60111;48.286;7.812;2022-12-18T15:49:49;84.80;;;44.47;;
72205;SDS011;60111;48.286;7.812;2022-12-18T15:52:21;71.10;;;31.93;;
72205;SDS011;60111;48.286;7.812;2022-12-18T15:54:56;70.00;;;30.30;;
72205;SDS011;60111;48.286;7.812;2022-12-18T15:57:47;81.02;;;34.98;;
72205;SDS011;60111;48.286;7.812;2022-12-18T16:00:19;62.40;;;28.75;;
72205;SDS011;60111;48.286;7.812;2022-12-18T16:02:52;57.27;;;27.40;;
72205;SDS011;60111;48.286;7.812;2022-12-18T16:05:25;61.98;;;28.92;;
72205;SDS011;60111;48.286;7.812;2022-12-18T16:07:58;62.85;;;28.47;;
72205;SDS011;60111;48.286;7.812;2022-12-18T16:10:31;61.70;;;27.32;;
72205;SDS011;60111;48.286;7.812;2022-12-18T16:13:03;67.50;;;29.52;;
72205;SDS011;60111;48.286;7.812;2022-12-18T16:15:36;63.33;;;29.77;;
72205;SDS011;60111;48.286;7.812;2022-12-18T16:18:08;66.37;;;30.72;;
72205;SDS011;60111;48.286;7.812;2022-12-18T16:20:41;68.97;;;31.23;;
72205;SDS011;60111;48.286;7.812;2022-12-18T16:23:14;74.75;;;32.25;;
72205;SDS011;60111;48.286;7.812;2022-12-18T16:25:47;72.32;;;33.67;;
72205;SDS011;60111;48.286;7.812;2022-12-18T16:28:19;67.15;;;29.77;;
72205;SDS011;60111;48.286;7.812;2022-12-18T16:30:52;70.95;;;33.78;;
72205;SDS011;60111;48.286;7.812;2022-12-18T16:33:24;74.97;;;33.63;;
72205;SDS011;60111;48.286;7.812;2022-12-18T16:35:57;72.37;;;32.78;;
72205;SDS011;60111;48.286;7.812;2022-12-18T16:38:29;68.20;;;31.12;;
72205;SDS011;60111;48.286;7.812;2022-12-18T16:41:04;59.77;;;27.48;;
72205;SDS011;60111;48.286;7.812;2022-12-18T16:43:56;65.13;;;29.27;;
72205;SDS011;60111;48.286;7.812;2022-12-18T16:46:29;60.23;;;25.92;;
72205;SDS011;60111;48.286;7.812;2022-12-18T16:49:01;64.70;;;28.45;;
72205;SDS011;60111;48.286;7.812;2022-12-18T16:51:34;76.95;;;33.25;;
72205;SDS011;60111;48.286;7.812;2022-12-18T16:54:07;71.47;;;35.10;;
72205;SDS011;60111;48.286;7.812;2022-12-18T16:56:40;101.35;;;44.40;;